KAC107 OEJN-OKKK
Flight info
| Callsign | KAC107 |
|---|---|
| Flight time | 1h 34m |
| Altitude | 37000 |
| Route | EGREP2W EGREP B417 HFR A788 KFR DCT |
| Aircraft | B77W/H-SDE1E2E3FGHIJ2J3J4J5M1RWXY/LB1D1 |
Departure
| Time | 2026-05-05 20:42 |
|---|---|
| Airport | King Abdulaziz International Airport (OEJN) |
Arrival
| Time | 2026-05-05 22:17 |
|---|---|
| Airport | Kuwait International Airport (OKKK) |
| Time | Latitude | Longitude | Altitude | Speed | Heading |
|---|---|---|---|---|---|
| 2026-05-05 20:02 | 21.66657 | 39.17012 | 34 ft | 0 kts | 82° |
| 2026-05-05 20:28 | 21.66656 | 39.17001 | 33 ft | 4 kts | 82° |
| 2026-05-05 20:28 | 21.66652 | 39.16972 | 32 ft | 4 kts | 82° |
| 2026-05-05 20:29 | 21.66648 | 39.16944 | 33 ft | 4 kts | 82° |
| 2026-05-05 20:29 | 21.66645 | 39.16918 | 34 ft | 1 kts | 82° |
| 2026-05-05 20:29 | 21.66645 | 39.16917 | 34 ft | 0 kts | 82° |
| 2026-05-05 20:30 | 21.66643 | 39.16913 | 34 ft | 1 kts | 110° |
| 2026-05-05 20:30 | 21.66646 | 39.16907 | 34 ft | 1 kts | 176° |
| 2026-05-05 20:31 | 21.66652 | 39.16905 | 34 ft | 1 kts | 138° |
| 2026-05-05 20:31 | 21.66658 | 39.16902 | 30 ft | 1 kts | 160° |
| 2026-05-05 20:31 | 21.66664 | 39.16898 | 30 ft | 1 kts | 166° |
| 2026-05-05 20:31 | 21.66675 | 39.16895 | 31 ft | 2 kts | 163° |
| 2026-05-05 20:32 | 21.66688 | 39.16891 | 30 ft | 2 kts | 165° |
| 2026-05-05 20:32 | 21.66701 | 39.16888 | 33 ft | 2 kts | 166° |
| 2026-05-05 20:32 | 21.66712 | 39.16885 | 32 ft | 1 kts | 166° |
| 2026-05-05 20:32 | 21.66720 | 39.16882 | 34 ft | 1 kts | 166° |
| 2026-05-05 20:33 | 21.66727 | 39.16880 | 33 ft | 1 kts | 165° |
| 2026-05-05 20:33 | 21.66733 | 39.16879 | 32 ft | 1 kts | 164° |
| 2026-05-05 20:33 | 21.66738 | 39.16877 | 32 ft | 1 kts | 163° |
| 2026-05-05 20:33 | 21.66744 | 39.16875 | 33 ft | 0 kts | 162° |
| 2026-05-05 20:36 | 21.66743 | 39.16875 | 33 ft | 0 kts | 162° |
| 2026-05-05 20:36 | 21.66739 | 39.16877 | 32 ft | 1 kts | 159° |
| 2026-05-05 20:36 | 21.66732 | 39.16882 | 33 ft | 1 kts | 148° |
| 2026-05-05 20:36 | 21.66722 | 39.16890 | 34 ft | 2 kts | 143° |
| 2026-05-05 20:37 | 21.66709 | 39.16901 | 33 ft | 3 kts | 142° |
| 2026-05-05 20:37 | 21.66692 | 39.16914 | 32 ft | 3 kts | 149° |
| 2026-05-05 20:37 | 21.66670 | 39.16926 | 34 ft | 4 kts | 154° |
| 2026-05-05 20:37 | 21.66644 | 39.16937 | 33 ft | 4 kts | 162° |
| 2026-05-05 20:38 | 21.66613 | 39.16945 | 35 ft | 5 kts | 166° |
| 2026-05-05 20:38 | 21.66582 | 39.16960 | 35 ft | 5 kts | 161° |
| 2026-05-05 20:38 | 21.66561 | 39.16968 | 35 ft | 5 kts | 159° |
| 2026-05-05 20:38 | 21.66501 | 39.16994 | 35 ft | 9 kts | 162° |
| 2026-05-05 20:39 | 21.66424 | 39.17016 | 35 ft | 13 kts | 174° |
| 2026-05-05 20:39 | 21.66328 | 39.16997 | 35 ft | 15 kts | 213° |
| 2026-05-05 20:39 | 21.66271 | 39.16893 | 35 ft | 17 kts | 250° |
| 2026-05-05 20:39 | 21.66224 | 39.16763 | 36 ft | 17 kts | 251° |
| 2026-05-05 20:40 | 21.66200 | 39.16686 | 36 ft | 8 kts | 247° |
| 2026-05-05 20:40 | 21.66185 | 39.16647 | 36 ft | 6 kts | 248° |
| 2026-05-05 20:40 | 21.66169 | 39.16604 | 35 ft | 6 kts | 250° |
| 2026-05-05 20:40 | 21.66152 | 39.16557 | 35 ft | 7 kts | 251° |
| 2026-05-05 20:41 | 21.66153 | 39.16506 | 34 ft | 7 kts | 290° |
| 2026-05-05 20:41 | 21.66188 | 39.16465 | 35 ft | 8 kts | 326° |
| 2026-05-05 20:41 | 21.66326 | 39.16402 | 37 ft | 62 kts | 339° |
| 2026-05-05 20:41 | 21.67119 | 39.16094 | 42 ft | 179 kts | 341° |
| 2026-05-05 20:42 | 21.68545 | 39.15545 | 530 ft | 249 kts | 339° |
| 2026-05-05 20:42 | 21.70295 | 39.14816 | 1458 ft | 284 kts | 339° |
| 2026-05-05 20:42 | 21.72190 | 39.14110 | 2551 ft | 282 kts | 349° |
| 2026-05-05 20:42 | 21.74087 | 39.14204 | 3812 ft | 270 kts | 19° |
| 2026-05-05 20:43 | 21.75754 | 39.15104 | 4880 ft | 268 kts | 37° |
| 2026-05-05 20:43 | 21.77187 | 39.16379 | 5664 ft | 275 kts | 41° |
| 2026-05-05 20:43 | 21.78623 | 39.17760 | 6020 ft | 279 kts | 43° |
| 2026-05-05 20:43 | 21.80072 | 39.19179 | 5999 ft | 282 kts | 43° |
| 2026-05-05 20:44 | 21.81517 | 39.20597 | 5997 ft | 279 kts | 43° |
| 2026-05-05 20:44 | 21.82951 | 39.21999 | 5996 ft | 277 kts | 43° |
| 2026-05-05 20:44 | 21.84383 | 39.23394 | 5999 ft | 278 kts | 42° |
| 2026-05-05 20:44 | 21.85819 | 39.24787 | 6004 ft | 278 kts | 42° |
| 2026-05-05 20:45 | 21.88726 | 39.27557 | 6871 ft | 281 kts | 41° |
| 2026-05-05 20:45 | 21.90203 | 39.28954 | 7817 ft | 284 kts | 41° |
| 2026-05-05 20:45 | 21.91694 | 39.30365 | 8728 ft | 287 kts | 41° |
| 2026-05-05 20:46 | 21.93204 | 39.31796 | 9589 ft | 291 kts | 41° |
| 2026-05-05 20:46 | 21.94718 | 39.33233 | 10406 ft | 298 kts | 41° |
| 2026-05-05 20:46 | 21.96330 | 39.34765 | 10761 ft | 323 kts | 41° |
| 2026-05-05 20:46 | 21.98088 | 39.36438 | 10973 ft | 350 kts | 42° |
| 2026-05-05 20:47 | 21.99963 | 39.38225 | 11487 ft | 366 kts | 42° |
| 2026-05-05 20:47 | 22.01897 | 39.40068 | 12241 ft | 375 kts | 42° |
| 2026-05-05 20:47 | 22.03864 | 39.41943 | 13121 ft | 380 kts | 42° |
| 2026-05-05 20:47 | 22.05860 | 39.43845 | 14018 ft | 384 kts | 42° |
| 2026-05-05 20:48 | 22.07874 | 39.45766 | 14843 ft | 389 kts | 42° |
| 2026-05-05 20:48 | 22.09887 | 39.47686 | 15651 ft | 394 kts | 42° |
| 2026-05-05 20:48 | 22.11953 | 39.49658 | 16425 ft | 399 kts | 42° |
| 2026-05-05 20:48 | 22.14044 | 39.51655 | 17186 ft | 403 kts | 42° |
| 2026-05-05 20:49 | 22.16157 | 39.53673 | 17913 ft | 408 kts | 42° |
| 2026-05-05 20:49 | 22.18297 | 39.55719 | 18639 ft | 412 kts | 42° |
| 2026-05-05 20:49 | 22.20456 | 39.57784 | 19322 ft | 417 kts | 42° |
| 2026-05-05 20:49 | 22.22642 | 39.59874 | 20014 ft | 422 kts | 42° |
| 2026-05-05 20:50 | 22.24849 | 39.61986 | 20684 ft | 426 kts | 42° |
| 2026-05-05 20:50 | 22.27048 | 39.64092 | 21317 ft | 430 kts | 42° |
| 2026-05-05 20:50 | 22.29295 | 39.66245 | 21938 ft | 434 kts | 42° |
| 2026-05-05 20:50 | 22.31570 | 39.68425 | 22535 ft | 438 kts | 42° |
| 2026-05-05 20:51 | 22.33864 | 39.70625 | 23127 ft | 442 kts | 42° |
| 2026-05-05 20:51 | 22.36178 | 39.72845 | 23690 ft | 446 kts | 42° |
| 2026-05-05 20:51 | 22.38510 | 39.75082 | 24241 ft | 450 kts | 42° |
| 2026-05-05 20:51 | 22.40863 | 39.77342 | 24780 ft | 454 kts | 42° |
| 2026-05-05 20:52 | 22.43233 | 39.79619 | 25266 ft | 458 kts | 42° |
| 2026-05-05 20:52 | 22.45622 | 39.81915 | 25772 ft | 461 kts | 42° |
| 2026-05-05 20:52 | 22.48027 | 39.84228 | 26258 ft | 465 kts | 42° |
| 2026-05-05 20:52 | 22.50457 | 39.86565 | 26720 ft | 468 kts | 42° |
| 2026-05-05 20:53 | 22.52901 | 39.88917 | 27177 ft | 472 kts | 42° |
| 2026-05-05 20:53 | 22.55366 | 39.91291 | 27607 ft | 475 kts | 42° |
| 2026-05-05 20:53 | 22.57810 | 39.93645 | 28025 ft | 478 kts | 42° |
| 2026-05-05 20:53 | 22.60302 | 39.96047 | 28431 ft | 481 kts | 42° |
| 2026-05-05 20:54 | 22.62806 | 39.98463 | 28817 ft | 484 kts | 42° |
| 2026-05-05 20:54 | 22.65333 | 40.00901 | 29188 ft | 487 kts | 42° |
| 2026-05-05 20:54 | 22.67872 | 40.03352 | 29549 ft | 490 kts | 42° |
| 2026-05-05 20:54 | 22.70422 | 40.05815 | 29908 ft | 493 kts | 42° |
| 2026-05-05 20:55 | 22.72989 | 40.08296 | 30232 ft | 495 kts | 42° |
| 2026-05-05 20:55 | 22.75563 | 40.10784 | 30549 ft | 498 kts | 42° |
| 2026-05-05 20:55 | 22.78152 | 40.13290 | 30841 ft | 500 kts | 42° |
| 2026-05-05 20:55 | 22.80746 | 40.15801 | 31203 ft | 500 kts | 42° |
| 2026-05-05 20:56 | 22.83335 | 40.18308 | 31626 ft | 498 kts | 42° |
| 2026-05-05 20:56 | 22.85917 | 40.20809 | 32061 ft | 497 kts | 42° |
| 2026-05-05 20:56 | 22.88461 | 40.23276 | 32465 ft | 496 kts | 42° |
| 2026-05-05 20:56 | 22.91059 | 40.25796 | 32860 ft | 495 kts | 42° |
| 2026-05-05 20:57 | 22.93597 | 40.28259 | 33228 ft | 494 kts | 42° |
| 2026-05-05 20:57 | 22.96155 | 40.30743 | 33609 ft | 494 kts | 42° |
| 2026-05-05 20:57 | 22.98716 | 40.33232 | 33986 ft | 493 kts | 42° |
| 2026-05-05 20:57 | 23.01263 | 40.35708 | 34347 ft | 492 kts | 42° |
| 2026-05-05 20:58 | 23.03809 | 40.38184 | 34699 ft | 491 kts | 42° |
| 2026-05-05 20:58 | 23.06353 | 40.40660 | 35050 ft | 491 kts | 42° |
| 2026-05-05 20:58 | 23.08893 | 40.43134 | 35394 ft | 490 kts | 42° |
| 2026-05-05 20:58 | 23.11430 | 40.45606 | 35736 ft | 489 kts | 42° |
| 2026-05-05 20:59 | 23.13960 | 40.48072 | 36071 ft | 489 kts | 42° |
| 2026-05-05 20:59 | 23.16486 | 40.50537 | 36379 ft | 488 kts | 42° |
| 2026-05-05 20:59 | 23.19016 | 40.53007 | 36663 ft | 488 kts | 42° |
| 2026-05-05 20:59 | 23.21556 | 40.55489 | 36743 ft | 492 kts | 42° |
| 2026-05-05 21:00 | 23.26654 | 40.60471 | 36795 ft | 492 kts | 42° |
| 2026-05-05 21:00 | 23.31492 | 40.65665 | 36804 ft | 487 kts | 46° |
| 2026-05-05 21:01 | 23.36120 | 40.70965 | 36805 ft | 485 kts | 46° |
| 2026-05-05 21:01 | 23.40772 | 40.76299 | 36808 ft | 485 kts | 46° |
| 2026-05-05 21:02 | 23.45441 | 40.81622 | 36805 ft | 486 kts | 46° |
| 2026-05-05 21:02 | 23.50115 | 40.86944 | 36807 ft | 486 kts | 46° |
| 2026-05-05 21:03 | 23.54799 | 40.92284 | 36807 ft | 487 kts | 46° |
| 2026-05-05 21:03 | 23.59486 | 40.97636 | 36808 ft | 488 kts | 46° |
| 2026-05-05 21:04 | 23.64071 | 41.02881 | 36804 ft | 489 kts | 46° |
| 2026-05-05 21:04 | 23.68773 | 41.08259 | 36806 ft | 489 kts | 46° |
| 2026-05-05 21:05 | 23.73473 | 41.13634 | 36806 ft | 490 kts | 46° |
| 2026-05-05 21:05 | 23.78178 | 41.19021 | 36806 ft | 490 kts | 46° |
| 2026-05-05 21:06 | 23.82874 | 41.24408 | 36806 ft | 489 kts | 46° |
| 2026-05-05 21:06 | 23.87534 | 41.29765 | 36807 ft | 489 kts | 46° |
| 2026-05-05 21:07 | 23.92248 | 41.35186 | 36805 ft | 489 kts | 46° |
| 2026-05-05 21:07 | 23.96904 | 41.40537 | 36805 ft | 488 kts | 46° |
| 2026-05-05 21:08 | 24.01578 | 41.45914 | 36807 ft | 488 kts | 46° |
| 2026-05-05 21:08 | 24.06260 | 41.51310 | 36804 ft | 488 kts | 46° |
| 2026-05-05 21:09 | 24.10931 | 41.56705 | 36806 ft | 488 kts | 46° |
| 2026-05-05 21:09 | 24.15602 | 41.62104 | 36805 ft | 488 kts | 46° |
| 2026-05-05 21:10 | 24.20241 | 41.67473 | 36807 ft | 488 kts | 46° |
| 2026-05-05 21:10 | 24.24915 | 41.72890 | 36805 ft | 488 kts | 47° |
| 2026-05-05 21:11 | 24.29577 | 41.78301 | 36806 ft | 488 kts | 47° |
| 2026-05-05 21:11 | 24.34309 | 41.83649 | 36803 ft | 488 kts | 43° |
| 2026-05-05 21:12 | 24.39351 | 41.88572 | 36806 ft | 488 kts | 41° |
| 2026-05-05 21:12 | 24.44465 | 41.93474 | 36807 ft | 488 kts | 41° |
| 2026-05-05 21:13 | 24.49565 | 41.98412 | 36805 ft | 489 kts | 41° |
| 2026-05-05 21:13 | 24.54561 | 42.03289 | 36805 ft | 489 kts | 42° |
| 2026-05-05 21:14 | 24.59640 | 42.08259 | 36804 ft | 489 kts | 42° |
| 2026-05-05 21:14 | 24.64718 | 42.13231 | 36804 ft | 489 kts | 42° |
| 2026-05-05 21:15 | 24.69794 | 42.18206 | 36804 ft | 489 kts | 42° |
| 2026-05-05 21:15 | 24.74869 | 42.23185 | 36805 ft | 489 kts | 42° |
| 2026-05-05 21:16 | 24.79940 | 42.28168 | 36805 ft | 489 kts | 42° |
| 2026-05-05 21:16 | 24.85016 | 42.33163 | 36804 ft | 489 kts | 42° |
| 2026-05-05 21:17 | 24.90052 | 42.38119 | 36807 ft | 489 kts | 42° |
| 2026-05-05 21:17 | 24.95124 | 42.43110 | 36807 ft | 489 kts | 42° |
| 2026-05-05 21:18 | 25.00194 | 42.48109 | 36807 ft | 488 kts | 42° |
| 2026-05-05 21:18 | 25.05256 | 42.53111 | 36805 ft | 488 kts | 42° |
| 2026-05-05 21:19 | 25.10317 | 42.58119 | 36805 ft | 488 kts | 42° |
| 2026-05-05 21:19 | 25.15340 | 42.63094 | 36807 ft | 488 kts | 42° |
| 2026-05-05 21:20 | 25.20397 | 42.68109 | 36804 ft | 488 kts | 42° |
| 2026-05-05 21:20 | 25.25456 | 42.73132 | 36805 ft | 488 kts | 42° |
| 2026-05-05 21:21 | 25.29660 | 42.77311 | 36806 ft | 488 kts | 42° |
| 2026-05-05 21:21 | 25.34709 | 42.82335 | 36805 ft | 488 kts | 42° |
| 2026-05-05 21:22 | 25.39757 | 42.87365 | 36804 ft | 488 kts | 42° |
| 2026-05-05 21:22 | 25.44804 | 42.92401 | 36804 ft | 488 kts | 42° |
| 2026-05-05 21:23 | 25.49852 | 42.97446 | 36805 ft | 488 kts | 42° |
| 2026-05-05 21:23 | 25.54786 | 43.02374 | 36807 ft | 488 kts | 42° |
| 2026-05-05 21:24 | 25.59846 | 43.07416 | 36806 ft | 488 kts | 42° |
| 2026-05-05 21:24 | 25.64893 | 43.12453 | 36807 ft | 488 kts | 42° |
| 2026-05-05 21:25 | 25.69943 | 43.17506 | 36805 ft | 488 kts | 42° |
| 2026-05-05 21:25 | 25.74988 | 43.22564 | 36806 ft | 488 kts | 42° |
| 2026-05-05 21:26 | 25.80026 | 43.27616 | 36805 ft | 488 kts | 42° |
| 2026-05-05 21:26 | 25.85068 | 43.32680 | 36805 ft | 488 kts | 42° |
| 2026-05-05 21:27 | 25.90064 | 43.37711 | 36805 ft | 488 kts | 42° |
| 2026-05-05 21:27 | 25.95093 | 43.42787 | 36807 ft | 488 kts | 42° |
| 2026-05-05 21:28 | 26.00117 | 43.47863 | 36805 ft | 488 kts | 42° |
| 2026-05-05 21:28 | 26.05149 | 43.52945 | 36804 ft | 488 kts | 42° |
| 2026-05-05 21:29 | 26.10171 | 43.58037 | 36804 ft | 488 kts | 43° |
| 2026-05-05 21:29 | 26.15196 | 43.63138 | 36805 ft | 488 kts | 43° |
| 2026-05-05 21:30 | 26.20212 | 43.68235 | 36804 ft | 488 kts | 43° |
| 2026-05-05 21:30 | 26.25234 | 43.73344 | 36805 ft | 488 kts | 43° |
| 2026-05-05 21:31 | 26.30247 | 43.78449 | 36805 ft | 488 kts | 43° |
| 2026-05-05 21:31 | 26.35059 | 43.83726 | 36805 ft | 488 kts | 46° |
| 2026-05-05 21:32 | 26.39794 | 43.89156 | 36808 ft | 488 kts | 46° |
| 2026-05-05 21:32 | 26.44553 | 43.94579 | 36805 ft | 488 kts | 45° |
| 2026-05-05 21:33 | 26.49328 | 43.99974 | 36805 ft | 488 kts | 45° |
| 2026-05-05 21:33 | 26.54008 | 44.05256 | 36804 ft | 488 kts | 45° |
| 2026-05-05 21:34 | 26.58779 | 44.10651 | 36805 ft | 488 kts | 45° |
| 2026-05-05 21:34 | 26.63521 | 44.16022 | 36804 ft | 488 kts | 45° |
| 2026-05-05 21:35 | 26.68292 | 44.21435 | 36805 ft | 488 kts | 45° |
| 2026-05-05 21:35 | 26.73060 | 44.26853 | 36805 ft | 488 kts | 45° |
| 2026-05-05 21:36 | 26.77833 | 44.32279 | 36804 ft | 488 kts | 45° |
| 2026-05-05 21:36 | 26.82597 | 44.37697 | 36808 ft | 488 kts | 45° |
| 2026-05-05 21:37 | 26.87325 | 44.43086 | 36807 ft | 488 kts | 45° |
| 2026-05-05 21:37 | 26.92098 | 44.48537 | 36807 ft | 488 kts | 46° |
| 2026-05-05 21:38 | 26.96826 | 44.53946 | 36805 ft | 488 kts | 46° |
| 2026-05-05 21:38 | 27.01573 | 44.59381 | 36807 ft | 488 kts | 46° |
| 2026-05-05 21:39 | 27.06318 | 44.64840 | 36806 ft | 488 kts | 46° |
| 2026-05-05 21:39 | 27.11064 | 44.70313 | 36804 ft | 488 kts | 46° |
| 2026-05-05 21:40 | 27.15775 | 44.75739 | 36805 ft | 488 kts | 46° |
| 2026-05-05 21:40 | 27.20523 | 44.81194 | 36805 ft | 488 kts | 46° |
| 2026-05-05 21:41 | 27.25268 | 44.86655 | 36805 ft | 488 kts | 46° |
| 2026-05-05 21:41 | 27.30007 | 44.92123 | 36804 ft | 488 kts | 46° |
| 2026-05-05 21:42 | 27.34751 | 44.97607 | 36804 ft | 488 kts | 46° |
| 2026-05-05 21:42 | 27.39376 | 45.02959 | 36805 ft | 488 kts | 46° |
| 2026-05-05 21:43 | 27.44115 | 45.08451 | 36808 ft | 488 kts | 46° |
| 2026-05-05 21:43 | 27.48848 | 45.13944 | 36804 ft | 488 kts | 46° |
| 2026-05-05 21:44 | 27.53571 | 45.19434 | 36804 ft | 488 kts | 46° |
| 2026-05-05 21:44 | 27.58343 | 45.24807 | 36801 ft | 488 kts | 43° |
| 2026-05-05 21:45 | 27.63357 | 45.29968 | 36803 ft | 488 kts | 42° |
| 2026-05-05 21:45 | 27.68396 | 45.35114 | 36805 ft | 488 kts | 42° |
| 2026-05-05 21:46 | 27.73402 | 45.40290 | 36806 ft | 488 kts | 43° |
| 2026-05-05 21:46 | 27.78400 | 45.45489 | 36804 ft | 488 kts | 43° |
| 2026-05-05 21:47 | 27.83365 | 45.50660 | 36804 ft | 488 kts | 43° |
| 2026-05-05 21:47 | 27.88350 | 45.55871 | 36804 ft | 488 kts | 44° |
| 2026-05-05 21:48 | 27.93116 | 45.61352 | 36809 ft | 488 kts | 46° |
| 2026-05-05 21:48 | 27.97806 | 45.66915 | 36804 ft | 488 kts | 46° |
| 2026-05-05 21:49 | 28.02494 | 45.72460 | 36809 ft | 488 kts | 46° |
| 2026-05-05 21:49 | 28.07198 | 45.78000 | 36805 ft | 488 kts | 46° |
| 2026-05-05 21:50 | 28.11908 | 45.83544 | 36805 ft | 488 kts | 46° |
| 2026-05-05 21:50 | 28.16585 | 45.89060 | 36805 ft | 488 kts | 46° |
| 2026-05-05 21:51 | 28.21292 | 45.94621 | 36805 ft | 488 kts | 46° |
| 2026-05-05 21:51 | 28.25926 | 46.00106 | 36805 ft | 487 kts | 46° |
| 2026-05-05 21:52 | 28.30493 | 46.05516 | 36793 ft | 469 kts | 46° |
| 2026-05-05 21:52 | 28.32722 | 46.08196 | 36695 ft | 466 kts | 49° |
| 2026-05-05 21:52 | 28.34620 | 46.11224 | 35936 ft | 473 kts | 62° |
| 2026-05-05 21:53 | 28.35973 | 46.14607 | 35342 ft | 470 kts | 71° |
| 2026-05-05 21:53 | 28.36792 | 46.18176 | 34849 ft | 465 kts | 80° |
| 2026-05-05 21:53 | 28.37304 | 46.21793 | 34365 ft | 461 kts | 81° |
| 2026-05-05 21:53 | 28.37772 | 46.25334 | 33873 ft | 458 kts | 81° |
| 2026-05-05 21:54 | 28.38242 | 46.28899 | 33383 ft | 455 kts | 81° |
| 2026-05-05 21:54 | 28.38719 | 46.32433 | 32911 ft | 451 kts | 81° |
| 2026-05-05 21:54 | 28.39205 | 46.35940 | 32424 ft | 448 kts | 81° |
| 2026-05-05 21:54 | 28.39695 | 46.39415 | 31951 ft | 444 kts | 81° |
| 2026-05-05 21:55 | 28.40186 | 46.42866 | 31475 ft | 441 kts | 81° |
| 2026-05-05 21:55 | 28.40674 | 46.46289 | 31007 ft | 438 kts | 81° |
| 2026-05-05 21:55 | 28.41159 | 46.49690 | 30540 ft | 434 kts | 81° |
| 2026-05-05 21:55 | 28.41640 | 46.53066 | 30075 ft | 431 kts | 81° |
| 2026-05-05 21:56 | 28.42116 | 46.56422 | 29613 ft | 428 kts | 81° |
| 2026-05-05 21:56 | 28.42586 | 46.59747 | 29147 ft | 425 kts | 81° |
| 2026-05-05 21:56 | 28.43053 | 46.63059 | 28673 ft | 422 kts | 81° |
| 2026-05-05 21:56 | 28.43516 | 46.66342 | 28207 ft | 420 kts | 81° |
| 2026-05-05 21:57 | 28.43975 | 46.69607 | 27732 ft | 417 kts | 81° |
| 2026-05-05 21:57 | 28.44424 | 46.72812 | 27285 ft | 414 kts | 81° |
| 2026-05-05 21:57 | 28.44875 | 46.76037 | 26824 ft | 412 kts | 81° |
| 2026-05-05 21:57 | 28.45323 | 46.79243 | 26366 ft | 409 kts | 81° |
| 2026-05-05 21:58 | 28.45768 | 46.82429 | 25917 ft | 407 kts | 81° |
| 2026-05-05 21:58 | 28.46211 | 46.85605 | 25458 ft | 404 kts | 81° |
| 2026-05-05 21:58 | 28.46649 | 46.88748 | 24998 ft | 402 kts | 81° |
| 2026-05-05 21:58 | 28.47085 | 46.91884 | 24559 ft | 399 kts | 81° |
| 2026-05-05 21:59 | 28.47516 | 46.94993 | 24119 ft | 397 kts | 81° |
| 2026-05-05 21:59 | 28.47945 | 46.98094 | 23674 ft | 395 kts | 81° |
| 2026-05-05 21:59 | 28.48348 | 47.01019 | 23243 ft | 392 kts | 81° |
| 2026-05-05 21:59 | 28.48768 | 47.04075 | 22814 ft | 390 kts | 81° |
| 2026-05-05 22:00 | 28.49185 | 47.07116 | 22374 ft | 388 kts | 81° |
| 2026-05-05 22:00 | 28.49599 | 47.10139 | 21937 ft | 386 kts | 81° |
| 2026-05-05 22:00 | 28.50011 | 47.13149 | 21500 ft | 384 kts | 81° |
| 2026-05-05 22:00 | 28.50419 | 47.16140 | 21064 ft | 382 kts | 81° |
| 2026-05-05 22:01 | 28.50824 | 47.19117 | 20624 ft | 380 kts | 81° |
| 2026-05-05 22:01 | 28.51227 | 47.22081 | 20195 ft | 378 kts | 81° |
| 2026-05-05 22:01 | 28.51623 | 47.24993 | 19766 ft | 376 kts | 81° |
| 2026-05-05 22:01 | 28.52020 | 47.27925 | 19321 ft | 374 kts | 81° |
| 2026-05-05 22:02 | 28.52415 | 47.30844 | 18900 ft | 373 kts | 81° |
| 2026-05-05 22:02 | 28.52808 | 47.33751 | 18475 ft | 371 kts | 81° |
| 2026-05-05 22:02 | 28.53199 | 47.36649 | 18033 ft | 370 kts | 81° |
| 2026-05-05 22:02 | 28.53587 | 47.39537 | 17605 ft | 368 kts | 81° |
| 2026-05-05 22:03 | 28.53973 | 47.42411 | 17175 ft | 366 kts | 81° |
| 2026-05-05 22:03 | 28.54356 | 47.45265 | 16751 ft | 365 kts | 81° |
| 2026-05-05 22:03 | 28.54738 | 47.48116 | 16321 ft | 363 kts | 81° |
| 2026-05-05 22:03 | 28.55117 | 47.50952 | 15887 ft | 362 kts | 81° |
| 2026-05-05 22:04 | 28.55493 | 47.53774 | 15473 ft | 360 kts | 81° |
| 2026-05-05 22:04 | 28.55867 | 47.56583 | 15056 ft | 359 kts | 81° |
| 2026-05-05 22:04 | 28.56239 | 47.59382 | 14635 ft | 357 kts | 81° |
| 2026-05-05 22:04 | 28.56610 | 47.62171 | 14213 ft | 355 kts | 81° |
| 2026-05-05 22:05 | 28.56980 | 47.64952 | 13791 ft | 354 kts | 81° |
| 2026-05-05 22:05 | 28.57362 | 47.67672 | 13386 ft | 352 kts | 79° |
| 2026-05-05 22:05 | 28.57818 | 47.70407 | 12971 ft | 351 kts | 78° |
| 2026-05-05 22:05 | 28.58291 | 47.73123 | 12548 ft | 350 kts | 78° |
| 2026-05-05 22:06 | 28.58762 | 47.75837 | 12094 ft | 349 kts | 79° |
| 2026-05-05 22:06 | 28.59224 | 47.78546 | 11672 ft | 348 kts | 79° |
| 2026-05-05 22:06 | 28.59680 | 47.81246 | 11256 ft | 347 kts | 79° |
| 2026-05-05 22:06 | 28.60130 | 47.83939 | 10897 ft | 343 kts | 79° |
| 2026-05-05 22:07 | 28.60572 | 47.86588 | 10590 ft | 339 kts | 79° |
| 2026-05-05 22:07 | 28.61011 | 47.89219 | 10225 ft | 337 kts | 79° |
| 2026-05-05 22:07 | 28.61468 | 47.91748 | 10093 ft | 322 kts | 73° |
| 2026-05-05 22:07 | 28.62500 | 47.93959 | 9922 ft | 314 kts | 50° |
| 2026-05-05 22:08 | 28.64158 | 47.95522 | 9741 ft | 308 kts | 31° |
| 2026-05-05 22:08 | 28.66104 | 47.96463 | 9515 ft | 302 kts | 13° |
| 2026-05-05 22:08 | 28.68147 | 47.96848 | 9350 ft | 294 kts | 8° |
| 2026-05-05 22:08 | 28.70215 | 47.97143 | 8688 ft | 304 kts | 7° |
| 2026-05-05 22:09 | 28.72309 | 47.97426 | 8430 ft | 299 kts | 7° |
| 2026-05-05 22:09 | 28.74342 | 47.97706 | 8295 ft | 290 kts | 7° |
| 2026-05-05 22:09 | 28.76363 | 47.97992 | 7673 ft | 298 kts | 8° |
| 2026-05-05 22:09 | 28.77729 | 47.98191 | 7399 ft | 298 kts | 8° |
| 2026-05-05 22:10 | 28.79762 | 47.98490 | 7227 ft | 290 kts | 8° |
| 2026-05-05 22:10 | 28.82407 | 47.98885 | 6683 ft | 290 kts | 8° |
| 2026-05-05 22:10 | 28.83739 | 47.99087 | 6356 ft | 293 kts | 8° |
| 2026-05-05 22:10 | 28.85736 | 47.99389 | 6149 ft | 285 kts | 8° |
| 2026-05-05 22:11 | 28.87679 | 47.99685 | 5883 ft | 281 kts | 8° |
| 2026-05-05 22:11 | 28.89643 | 47.99984 | 5349 ft | 287 kts | 8° |
| 2026-05-05 22:11 | 28.91521 | 48.00271 | 5144 ft | 280 kts | 8° |
| 2026-05-05 22:11 | 28.93432 | 48.00563 | 4842 ft | 277 kts | 8° |
| 2026-05-05 22:12 | 28.95364 | 48.00859 | 4419 ft | 279 kts | 8° |
| 2026-05-05 22:12 | 28.97286 | 48.01154 | 4065 ft | 278 kts | 8° |
| 2026-05-05 22:12 | 28.99198 | 48.01448 | 3721 ft | 276 kts | 8° |
| 2026-05-05 22:12 | 29.01065 | 48.01734 | 3543 ft | 268 kts | 8° |
| 2026-05-05 22:13 | 29.02889 | 48.02012 | 3401 ft | 260 kts | 8° |
| 2026-05-05 22:13 | 29.04674 | 48.02284 | 3112 ft | 257 kts | 8° |
| 2026-05-05 22:13 | 29.06409 | 48.02485 | 2881 ft | 248 kts | 358° |
| 2026-05-05 22:13 | 29.08029 | 48.02004 | 2546 ft | 237 kts | 340° |
| 2026-05-05 22:14 | 29.09503 | 48.01288 | 2219 ft | 224 kts | 336° |
| 2026-05-05 22:14 | 29.10869 | 48.00557 | 1975 ft | 216 kts | 336° |
| 2026-05-05 22:14 | 29.12210 | 47.99840 | 1664 ft | 207 kts | 336° |
| 2026-05-05 22:14 | 29.13476 | 47.99166 | 1381 ft | 194 kts | 336° |
| 2026-05-05 22:15 | 29.14654 | 47.98540 | 1117 ft | 179 kts | 336° |
| 2026-05-05 22:15 | 29.15741 | 47.97961 | 905 ft | 168 kts | 336° |
| 2026-05-05 22:15 | 29.16775 | 47.97410 | 660 ft | 162 kts | 335° |
| 2026-05-05 22:15 | 29.17753 | 47.96850 | 384 ft | 150 kts | 336° |
| 2026-05-05 22:16 | 29.18706 | 47.96362 | 323 ft | 153 kts | 336° |
| 2026-05-05 22:16 | 29.19651 | 47.95870 | 206 ft | 147 kts | 336° |
| 2026-05-05 22:16 | 29.20485 | 47.95431 | 195 ft | 112 kts | 334° |
| 2026-05-05 22:16 | 29.21041 | 47.95109 | 199 ft | 67 kts | 337° |
| 2026-05-05 22:17 | 29.21331 | 47.94967 | 203 ft | 23 kts | 338° |
| 2026-05-05 22:17 | 29.21474 | 47.94910 | 205 ft | 28 kts | 334° |
| 2026-05-05 22:17 | 29.21690 | 47.94792 | 199 ft | 36 kts | 334° |
| 2026-05-05 22:17 | 29.21918 | 47.94669 | 204 ft | 35 kts | 335° |
| 2026-05-05 22:18 | 29.22114 | 47.94613 | 197 ft | 24 kts | 36° |
| 2026-05-05 22:18 | 29.22163 | 47.94784 | 172 ft | 21 kts | 111° |
| 2026-05-05 22:18 | 29.22057 | 47.94897 | 168 ft | 21 kts | 121° |
| 2026-05-05 22:18 | 29.22082 | 47.95057 | 166 ft | 21 kts | 63° |
| 2026-05-05 22:19 | 29.22144 | 47.95212 | 165 ft | 21 kts | 69° |
| 2026-05-05 22:19 | 29.22210 | 47.95361 | 165 ft | 21 kts | 59° |
| 2026-05-05 22:19 | 29.22272 | 47.95516 | 165 ft | 21 kts | 67° |
| 2026-05-05 22:19 | 29.22339 | 47.95668 | 165 ft | 21 kts | 63° |
| 2026-05-05 22:20 | 29.22403 | 47.95822 | 165 ft | 21 kts | 64° |
| 2026-05-05 22:20 | 29.22465 | 47.95977 | 165 ft | 21 kts | 70° |
| 2026-05-05 22:20 | 29.22524 | 47.96133 | 165 ft | 21 kts | 63° |
| 2026-05-05 22:20 | 29.22592 | 47.96285 | 165 ft | 21 kts | 67° |
| 2026-05-05 22:21 | 29.22648 | 47.96443 | 165 ft | 21 kts | 69° |
| 2026-05-05 22:21 | 29.22721 | 47.96577 | 170 ft | 16 kts | 25° |
| 2026-05-05 22:21 | 29.22830 | 47.96559 | 175 ft | 16 kts | 340° |
| 2026-05-05 22:21 | 29.22931 | 47.96507 | 175 ft | 16 kts | 337° |
| 2026-05-05 22:22 | 29.23028 | 47.96534 | 187 ft | 16 kts | 59° |
| 2026-05-05 22:22 | 29.23079 | 47.96647 | 201 ft | 16 kts | 68° |
| 2026-05-05 22:22 | 29.23124 | 47.96767 | 201 ft | 18 kts | 63° |
| 2026-05-05 22:22 | 29.23194 | 47.96842 | 182 ft | 13 kts | 357° |
| 2026-05-05 22:23 | 29.23281 | 47.96808 | 183 ft | 13 kts | 336° |
| 2026-05-05 22:23 | 29.23364 | 47.96761 | 184 ft | 13 kts | 335° |
| 2026-05-05 22:23 | 29.23451 | 47.96707 | 182 ft | 15 kts | 327° |
| 2026-05-05 22:23 | 29.23549 | 47.96651 | 179 ft | 17 kts | 340° |
| 2026-05-05 22:24 | 29.23668 | 47.96599 | 173 ft | 20 kts | 337° |
| 2026-05-05 22:24 | 29.23803 | 47.96531 | 171 ft | 21 kts | 335° |
| 2026-05-05 22:24 | 29.23936 | 47.96454 | 170 ft | 21 kts | 336° |
| 2026-05-05 22:24 | 29.24067 | 47.96376 | 170 ft | 21 kts | 327° |
| 2026-05-05 22:25 | 29.24187 | 47.96367 | 171 ft | 14 kts | 35° |
| 2026-05-05 22:25 | 29.24219 | 47.96470 | 172 ft | 14 kts | 60° |
| 2026-05-05 22:25 | 29.24290 | 47.96521 | 172 ft | 12 kts | 346° |
| 2026-05-05 22:25 | 29.24307 | 47.96512 | 172 ft | 0 kts | 332° |